createdAt,value
2023-03-05T00:01:25.062Z,33.47
2023-03-05T00:03:54.354Z,28.98
2023-03-05T00:06:23.709Z,30.67
2023-03-05T00:08:53.629Z,31.23
2023-03-05T00:11:22.003Z,29.70
2023-03-05T00:13:52.633Z,31.17
2023-03-05T00:16:20.790Z,28.35
2023-03-05T00:18:49.884Z,31.15
2023-03-05T00:21:22.184Z,30.50
2023-03-05T00:23:51.077Z,30.70
2023-03-05T00:26:22.753Z,30.92
2023-03-05T00:28:52.736Z,27.80
2023-03-05T00:31:22.227Z,29.80
2023-03-05T00:33:52.968Z,31.17
2023-03-05T00:36:20.954Z,28.70
2023-03-05T00:38:49.023Z,29.75
2023-03-05T00:41:17.493Z,30.45
2023-03-05T00:43:45.350Z,29.02
2023-03-05T00:46:12.986Z,29.85
2023-03-05T00:48:40.586Z,29.40
2023-03-05T00:51:09.451Z,30.95
2023-03-05T00:53:37.579Z,31.83
2023-03-05T00:56:06.173Z,29.92
2023-03-05T00:58:34.046Z,31.92
2023-03-05T01:01:02.955Z,30.65
2023-03-05T01:03:31.321Z,28.90
2023-03-05T01:05:59.034Z,30.10
2023-03-05T01:08:27.409Z,29.02
2023-03-05T01:10:55.219Z,31.98
2023-03-05T01:13:22.930Z,30.45
2023-03-05T01:15:51.514Z,30.08
2023-03-05T01:18:20.200Z,29.05
2023-03-05T01:20:48.400Z,29.13
2023-03-05T01:23:16.029Z,31.20
2023-03-05T01:25:43.838Z,29.58
2023-03-05T01:28:11.636Z,28.80
2023-03-05T01:30:42.190Z,29.15
2023-03-05T01:33:09.848Z,28.88
2023-03-05T01:35:37.745Z,29.92
2023-03-05T01:38:05.557Z,31.17
2023-03-05T01:40:33.419Z,29.27
2023-03-05T01:43:02.884Z,30.60
2023-03-05T01:45:33.608Z,28.08
2023-03-05T01:48:01.357Z,28.98
2023-03-05T01:50:30.535Z,30.17
2023-03-05T01:53:03.170Z,31.10
2023-03-05T01:55:32.845Z,31.02
2023-03-05T01:58:02.994Z,29.52
2023-03-05T02:00:34.408Z,30.00
2023-03-05T02:03:04.624Z,29.88
2023-03-05T02:05:36.806Z,29.42
2023-03-05T02:08:09.347Z,30.08
2023-03-05T02:10:36.973Z,31.42
2023-03-05T02:13:09.555Z,31.58
2023-03-05T02:15:38.256Z,30.52
2023-03-05T02:18:07.057Z,30.90
2023-03-05T02:20:47.246Z,30.17
2023-03-05T02:23:15.730Z,30.70
2023-03-05T02:25:43.624Z,30.30
2023-03-05T02:28:21.444Z,28.98
2023-03-05T02:30:49.217Z,32.13
2023-03-05T02:33:18.323Z,30.33
2023-03-05T02:35:46.808Z,30.75
2023-03-05T02:38:15.416Z,30.65
2023-03-05T02:40:43.343Z,30.42
2023-03-05T02:43:11.854Z,30.02
2023-03-05T02:45:40.134Z,32.22
2023-03-05T02:48:08.036Z,31.55
2023-03-05T02:50:36.822Z,33.28
2023-03-05T02:53:06.116Z,32.22
2023-03-05T02:55:36.561Z,33.42
2023-03-05T02:58:04.330Z,33.43
2023-03-05T03:00:31.956Z,31.92
2023-03-05T03:02:59.759Z,32.83
2023-03-05T03:05:28.189Z,33.90
2023-03-05T03:07:56.157Z,33.70
2023-03-05T03:10:23.944Z,33.08
2023-03-05T03:12:51.873Z,34.17
2023-03-05T03:15:20.204Z,34.05
2023-03-05T03:17:48.164Z,34.25
2023-03-05T03:20:17.469Z,33.20
2023-03-05T03:22:45.845Z,33.17
2023-03-05T03:25:22.190Z,34.70
2023-03-05T03:27:52.893Z,36.00
2023-03-05T03:30:20.602Z,36.58
2023-03-05T03:32:48.266Z,33.22
2023-03-05T03:35:16.092Z,33.63
2023-03-05T03:37:43.818Z,36.70
2023-03-05T03:40:12.551Z,36.80
2023-03-05T03:42:40.328Z,32.88
2023-03-05T03:45:08.420Z,35.60
2023-03-05T03:47:36.265Z,35.53
2023-03-05T03:50:04.367Z,33.85
2023-03-05T03:52:32.393Z,35.55
2023-03-05T03:55:02.446Z,35.45
2023-03-05T03:57:30.822Z,34.50
2023-03-05T03:59:58.491Z,36.78
2023-03-05T04:02:26.501Z,34.97
2023-03-05T04:04:54.522Z,34.97
2023-03-05T04:07:22.227Z,35.70
2023-03-05T04:09:50.231Z,36.45
2023-03-05T04:12:18.432Z,36.22
2023-03-05T04:14:47.007Z,35.15
2023-03-05T04:17:15.418Z,37.35
2023-03-05T04:19:43.994Z,33.40
2023-03-05T04:22:15.619Z,34.80
2023-03-05T04:24:43.672Z,32.97
2023-03-05T04:27:12.375Z,34.58
2023-03-05T04:29:40.370Z,32.90
2023-03-05T04:32:09.174Z,34.58
2023-03-05T04:34:38.564Z,32.40
2023-03-05T04:37:06.489Z,35.70
2023-03-05T04:39:34.443Z,36.60
2023-03-05T04:42:02.763Z,33.55
2023-03-05T04:44:30.402Z,33.90
2023-03-05T04:46:58.446Z,35.22
2023-03-05T04:49:26.602Z,34.47
2023-03-05T04:51:55.212Z,35.05
2023-03-05T04:54:23.264Z,35.70
2023-03-05T04:56:51.104Z,35.13
2023-03-05T04:59:18.830Z,34.97
2023-03-05T05:01:47.138Z,33.97
2023-03-05T05:04:15.024Z,34.75
2023-03-05T05:06:42.839Z,33.55
2023-03-05T05:09:10.641Z,33.97
2023-03-05T05:11:38.604Z,32.97
2023-03-05T05:14:06.394Z,34.78
2023-03-05T05:16:34.492Z,35.33
2023-03-05T05:19:02.598Z,36.60
2023-03-05T05:21:30.534Z,36.58
2023-03-05T05:23:58.439Z,35.33
2023-03-05T05:26:26.446Z,35.85
2023-03-05T05:28:54.388Z,36.38
2023-03-05T05:31:22.442Z,37.42
2023-03-05T05:33:50.453Z,33.80
2023-03-05T05:36:19.441Z,36.75
2023-03-05T05:38:47.328Z,36.83
2023-03-05T05:41:16.453Z,37.00
2023-03-05T05:43:44.395Z,37.67
2023-03-05T05:46:13.993Z,38.75
2023-03-05T05:48:43.836Z,36.25
2023-03-05T05:51:14.920Z,38.83
2023-03-05T05:53:43.024Z,38.35
2023-03-05T05:56:11.308Z,35.65
2023-03-05T05:58:39.788Z,37.28
2023-03-05T06:01:26.460Z,35.95
2023-03-05T06:03:54.430Z,33.38
2023-03-05T06:06:24.035Z,38.03
2023-03-05T06:08:52.171Z,37.42
2023-03-05T06:11:20.084Z,37.20
2023-03-05T06:13:48.506Z,36.35
2023-03-05T06:16:17.697Z,36.33
2023-03-05T06:18:45.766Z,37.95
2023-03-05T06:21:14.931Z,37.60
2023-03-05T06:23:44.289Z,34.45
2023-03-05T06:26:13.107Z,32.60
2023-03-05T06:28:40.709Z,38.17
2023-03-05T06:31:12.144Z,39.40
2023-03-05T06:33:40.477Z,38.28
2023-03-05T06:36:09.338Z,33.42
2023-03-05T06:38:37.719Z,37.97
2023-03-05T06:41:07.002Z,37.65
2023-03-05T06:43:35.658Z,36.75
2023-03-05T06:46:08.065Z,35.85
2023-03-05T06:48:35.803Z,37.40
2023-03-05T06:51:03.487Z,33.78
2023-03-05T06:53:31.593Z,34.33
2023-03-05T06:56:02.213Z,32.90
2023-03-05T06:58:30.658Z,36.80
2023-03-05T07:00:58.476Z,34.83
2023-03-05T07:03:26.437Z,35.58
2023-03-05T07:05:54.272Z,39.53
2023-03-05T07:08:22.583Z,35.90
2023-03-05T07:10:50.425Z,36.80
2023-03-05T07:13:18.453Z,33.50
2023-03-05T07:15:46.192Z,34.72
2023-03-05T07:18:14.179Z,35.78
2023-03-05T07:20:42.109Z,34.60
2023-03-05T07:23:09.952Z,36.88
2023-03-05T07:25:38.065Z,36.28
2023-03-05T07:28:06.974Z,36.35
2023-03-05T07:30:35.468Z,34.65
2023-03-05T07:33:03.222Z,33.15
2023-03-05T07:35:30.983Z,32.90
2023-03-05T07:37:58.632Z,33.42
2023-03-05T07:40:26.726Z,33.67
2023-03-05T07:42:54.670Z,34.03
2023-03-05T07:45:30.290Z,36.47
2023-03-05T07:47:58.378Z,32.90
2023-03-05T07:50:26.262Z,32.58
2023-03-05T07:52:54.106Z,33.33
2023-03-05T07:55:21.950Z,35.00
2023-03-05T07:57:51.490Z,32.80
2023-03-05T08:00:21.865Z,35.60
2023-03-05T08:05:39.672Z,35.13
2023-03-05T08:19:05.323Z,34.75
2023-03-05T08:21:37.102Z,34.17
2023-03-05T08:24:12.458Z,35.03
2023-03-05T08:26:43.786Z,36.25
2023-03-05T08:29:11.697Z,36.17
2023-03-05T08:31:47.029Z,34.70
2023-03-05T08:36:58.542Z,34.33
2023-03-05T08:47:32.408Z,35.25
2023-03-05T08:50:00.181Z,34.10
2023-03-05T09:03:19.968Z,28.00
2023-03-05T09:09:03.274Z,30.75
2023-03-05T09:11:31.132Z,27.58
2023-03-05T09:14:01.512Z,28.75
2023-03-05T09:16:39.880Z,30.08
2023-03-05T09:19:15.977Z,28.75
2023-03-05T09:57:49.817Z,25.42
2023-03-05T10:00:21.220Z,23.35
2023-03-05T10:03:00.937Z,23.30
2023-03-05T10:08:32.385Z,25.30
2023-03-05T10:14:09.825Z,25.50
2023-03-05T10:16:39.921Z,23.60
2023-03-05T10:19:28.932Z,23.13
2023-03-05T10:21:56.898Z,24.83
2023-03-05T10:31:14.707Z,20.08
2023-03-05T10:33:48.577Z,20.50
2023-03-05T10:36:24.399Z,25.67
2023-03-05T10:38:56.855Z,19.67
2023-03-05T10:41:52.610Z,21.88
2023-03-05T10:44:34.880Z,20.90
2023-03-05T10:47:07.851Z,23.23
2023-03-05T10:49:53.751Z,22.83
2023-03-05T11:01:14.707Z,19.33
2023-03-05T11:25:35.803Z,14.52
2023-03-05T11:28:33.319Z,13.68
2023-03-05T11:34:03.767Z,12.48
2023-03-05T11:42:14.863Z,13.63
2023-03-05T11:53:30.090Z,17.38
2023-03-05T11:56:05.088Z,16.73
2023-03-05T11:58:33.177Z,15.57
2023-03-05T12:01:01.418Z,13.10
2023-03-05T12:03:39.642Z,14.80
2023-03-05T12:06:08.319Z,15.77
2023-03-05T12:08:38.162Z,14.27
2023-03-05T12:11:07.833Z,14.82
2023-03-05T12:13:43.062Z,15.13
2023-03-05T12:16:14.113Z,14.07
2023-03-05T12:18:53.307Z,12.82
2023-03-05T12:21:25.768Z,10.70
2023-03-05T12:24:04.035Z,11.50
2023-03-05T12:26:59.631Z,11.82
2023-03-05T12:29:41.322Z,10.88
2023-03-05T12:32:33.354Z,11.05
2023-03-05T12:35:01.192Z,7.25
2023-03-05T12:37:28.872Z,8.90
2023-03-05T12:40:13.530Z,8.75
2023-03-05T12:42:48.252Z,10.23
2023-03-05T12:45:24.206Z,10.25
2023-03-05T12:47:58.188Z,11.30
2023-03-05T12:50:30.918Z,12.38
2023-03-05T12:55:48.254Z,10.60
2023-03-05T12:58:19.356Z,12.07
2023-03-05T13:00:55.687Z,11.80
2023-03-05T13:03:27.089Z,13.18
2023-03-05T13:05:59.721Z,11.07
2023-03-05T13:08:33.015Z,11.35
2023-03-05T13:11:01.353Z,12.32
2023-03-05T13:13:34.394Z,12.10
2023-03-05T13:16:03.232Z,11.85
2023-03-05T13:18:33.669Z,11.43
2023-03-05T13:21:06.791Z,11.98
2023-03-05T13:23:35.577Z,12.35
2023-03-05T13:26:18.708Z,12.73
2023-03-05T13:29:03.962Z,10.70
2023-03-05T13:31:32.795Z,10.15
2023-03-05T13:34:08.967Z,11.73
2023-03-05T13:36:40.261Z,8.77
2023-03-05T13:39:08.505Z,10.02
2023-03-05T13:41:38.997Z,9.25
2023-03-05T13:44:14.637Z,9.73
2023-03-05T13:46:46.430Z,9.57
2023-03-05T13:49:23.903Z,11.80
2023-03-05T13:51:54.554Z,10.43
2023-03-05T13:54:27.300Z,10.25
2023-03-05T13:57:03.020Z,9.60
2023-03-05T13:59:33.097Z,8.85
2023-03-05T14:04:50.435Z,9.18
2023-03-05T14:07:21.861Z,9.10
2023-03-05T14:09:59.975Z,7.63
2023-03-05T14:15:39.825Z,9.30
2023-03-05T14:24:09.080Z,8.43
2023-03-05T14:53:32.691Z,8.10
2023-03-05T14:56:05.820Z,7.00
2023-03-05T15:04:47.067Z,6.78
2023-03-05T15:07:19.529Z,8.68
2023-03-05T15:09:59.120Z,8.20
2023-03-05T15:12:39.956Z,6.50
2023-03-05T15:15:08.138Z,7.50
2023-03-05T15:20:59.347Z,7.53
2023-03-05T15:26:35.724Z,8.10
2023-03-05T15:35:25.446Z,7.65
2023-03-05T15:38:08.395Z,6.13
2023-03-05T15:46:51.746Z,5.60
2023-03-05T15:58:00.579Z,5.15
2023-03-05T16:21:22.737Z,6.38
2023-03-05T16:24:08.692Z,8.15
2023-03-05T16:32:28.577Z,6.00
2023-03-05T16:52:03.501Z,5.90
2023-03-05T17:00:36.100Z,6.47
2023-03-05T17:06:16.031Z,6.47
2023-03-05T17:19:41.785Z,6.28
2023-03-05T17:22:11.906Z,7.50
2023-03-05T17:24:43.315Z,5.65
2023-03-05T17:27:11.459Z,6.57
2023-03-05T17:29:39.558Z,8.50
2023-03-05T17:32:07.675Z,7.57
2023-03-05T17:34:36.961Z,8.45
2023-03-05T17:37:07.118Z,8.15
2023-03-05T17:39:35.186Z,7.80
2023-03-05T17:42:03.609Z,7.70
2023-03-05T17:49:56.119Z,8.02
2023-03-05T17:52:23.928Z,7.57
2023-03-05T17:54:54.568Z,8.57
2023-03-05T17:57:22.506Z,7.47
2023-03-05T17:59:50.733Z,8.55
2023-03-05T18:02:18.534Z,9.27
2023-03-05T18:04:47.929Z,8.88
2023-03-05T18:07:15.860Z,7.65
2023-03-05T18:09:50.909Z,8.98
2023-03-05T18:12:19.577Z,13.75
2023-03-05T18:14:47.624Z,10.10
2023-03-05T18:17:15.383Z,9.45
2023-03-05T18:19:43.810Z,9.90
2023-03-05T18:22:18.749Z,12.80
2023-03-05T18:24:52.502Z,10.43
2023-03-05T18:27:22.692Z,11.38
2023-03-05T18:29:54.932Z,11.55
2023-03-05T18:40:44.191Z,12.13
2023-03-05T18:43:12.217Z,11.45
2023-03-05T18:45:39.918Z,10.90
2023-03-05T18:48:07.815Z,12.60
2023-03-05T18:50:35.818Z,12.13
2023-03-05T18:53:04.300Z,12.23
2023-03-05T18:55:35.355Z,12.25
2023-03-05T18:58:03.487Z,11.68
2023-03-05T19:00:33.406Z,12.05
2023-03-05T19:03:03.206Z,10.95
2023-03-05T19:05:32.064Z,10.32
2023-03-05T19:08:00.362Z,10.35
2023-03-05T19:10:28.452Z,9.73
2023-03-05T19:13:33.878Z,9.55
2023-03-05T19:16:10.715Z,8.68
2023-03-05T19:19:16.949Z,10.23
2023-03-05T19:21:45.620Z,10.63
2023-03-05T19:24:13.998Z,10.15
2023-03-05T19:26:41.775Z,9.73
2023-03-05T19:29:09.618Z,8.93
2023-03-05T19:31:38.008Z,9.20
2023-03-05T19:34:05.870Z,8.98
2023-03-05T19:36:36.878Z,9.45
2023-03-05T19:41:47.685Z,8.50
2023-03-05T19:44:17.547Z,9.07
2023-03-05T19:46:45.502Z,8.95
2023-03-05T19:49:13.462Z,8.80
2023-03-05T19:51:43.298Z,9.30
2023-03-05T19:54:11.981Z,10.00
2023-03-05T19:56:41.101Z,9.60
2023-03-05T19:59:09.185Z,10.50
2023-03-05T20:01:39.050Z,10.57
2023-03-05T20:04:06.820Z,10.45
2023-03-05T20:06:38.769Z,12.32
2023-03-05T20:09:15.478Z,11.57
2023-03-05T20:11:47.702Z,12.20
2023-03-05T20:14:19.405Z,13.90
2023-03-05T20:16:55.574Z,15.88
2023-03-05T20:19:27.111Z,19.45
2023-03-05T20:24:55.403Z,16.70
2023-03-05T20:27:26.909Z,17.02
2023-03-05T20:29:54.820Z,29.52
2023-03-05T20:32:23.322Z,34.15
2023-03-05T20:35:07.465Z,30.75
2023-03-05T20:38:14.584Z,28.33
2023-03-05T20:43:29.343Z,21.00
2023-03-05T20:45:57.853Z,12.18
2023-03-05T20:48:26.617Z,11.20
2023-03-05T20:51:01.483Z,10.95
2023-03-05T20:53:30.972Z,10.55
2023-03-05T20:55:59.227Z,9.65
2023-03-05T20:58:29.984Z,10.27
2023-03-05T21:00:58.570Z,10.50
2023-03-05T21:03:26.423Z,10.43
2023-03-05T21:06:03.455Z,10.35
2023-03-05T21:08:33.095Z,10.00
2023-03-05T21:11:01.690Z,10.32
2023-03-05T21:13:31.339Z,9.57
2023-03-05T21:16:00.829Z,11.50
2023-03-05T21:18:30.023Z,10.60
2023-03-05T21:20:57.920Z,10.95
2023-03-05T21:23:25.860Z,11.18
2023-03-05T21:25:54.208Z,10.63
2023-03-05T21:28:22.982Z,11.45
2023-03-05T21:30:55.415Z,11.32
2023-03-05T21:36:19.137Z,11.25
2023-03-05T21:38:48.664Z,10.55
2023-03-05T21:41:18.542Z,10.50
2023-03-05T21:43:53.411Z,11.05
2023-03-05T21:46:21.057Z,11.55
2023-03-05T21:48:49.126Z,10.43
2023-03-05T21:57:22.576Z,13.05
2023-03-05T22:02:50.842Z,12.05
2023-03-05T22:05:18.528Z,12.98
2023-03-05T22:07:56.836Z,13.07
2023-03-05T22:10:28.504Z,10.70
2023-03-05T22:13:11.915Z,11.35
2023-03-05T22:15:50.857Z,11.35
2023-03-05T22:18:22.189Z,12.02
2023-03-05T22:20:52.327Z,11.82
2023-03-05T22:23:29.989Z,11.02
2023-03-05T22:26:02.723Z,11.60
2023-03-05T22:28:31.725Z,11.00
2023-03-05T22:30:59.617Z,10.75
2023-03-05T22:33:31.113Z,11.45
2023-03-05T22:36:00.662Z,11.00
2023-03-05T22:38:28.400Z,11.38
2023-03-05T22:40:56.148Z,11.05
2023-03-05T22:43:24.128Z,10.70
2023-03-05T22:45:53.316Z,12.05
2023-03-05T22:48:21.076Z,11.68
2023-03-05T22:50:55.740Z,11.05
2023-03-05T22:53:24.990Z,11.52
2023-03-05T22:55:52.832Z,11.65
2023-03-05T22:58:28.077Z,10.27
2023-03-05T23:00:56.166Z,11.73
2023-03-05T23:03:24.258Z,11.27
2023-03-05T23:05:52.372Z,11.48
2023-03-05T23:08:20.620Z,10.77
2023-03-05T23:10:50.923Z,11.10
2023-03-05T23:13:18.796Z,12.90
2023-03-05T23:15:46.587Z,12.75
2023-03-05T23:18:15.123Z,11.80
2023-03-05T23:20:43.416Z,12.02
2023-03-05T23:23:11.158Z,11.45
2023-03-05T23:25:38.863Z,13.23
2023-03-05T23:28:06.593Z,12.75
2023-03-05T23:30:37.248Z,11.23
2023-03-05T23:33:18.609Z,12.18
2023-03-05T23:38:14.611Z,10.63
2023-03-05T23:40:54.173Z,12.00
2023-03-05T23:43:24.591Z,11.15
2023-03-05T23:45:56.520Z,11.32
2023-03-05T23:48:25.567Z,11.52
2023-03-05T23:50:53.675Z,12.13
2023-03-05T23:53:23.082Z,10.95
2023-03-05T23:55:51.356Z,11.48
2023-03-05T23:58:20.485Z,10.88
